PWSweather.com
Personal Weather Stations
Station Observations

LasarteES

Lat: 43.268748, Lon: -2.019531

Elevation: 55

Station Type: DAVIS VP2

http://www.meteolasarte.com/

Latest ConditionsUpdated 8:47:03 PM GMT+01:01 Wednesday, Dec 12, 2018
Currently Today's Max Today's Min Today's Average
Temperature 51.4°F10.8°C 56.8°F13.8°C 46.2°F7.9°C 52.3°F11.3°C
Dew Point 47.7°F8.7°C 52.5°F11.4°C 42.8°F6.0°C 48.3°F9.1°C
Winds 6.9 mph SE11.1 kmh SE 6.9 mph -11.1 kmh - - 0.7 mph 1.1 kmh
Wind Gusts 2.0 mph3.2 kmh 6.0 mph9.7 kmh - -
Humidity 87% 93% 72% 86%
Pressure 29.94 in1013.9 mb 30.21 in1023.0 mb 29.94 in1013.9 mb -
Precipitation - 0.06 in1.5 mm - -
Hour Temp Dew Point Humidity Winds Wind Gusts Pressure Precip Precip Rate Daily Precip Total
08:47 PM 51.4°F10.8°C 47.7°F8.7°C 87% 6.9 mph SE11.1 kmh SE 2.0 mph3.2 kmh 29.94 in1013.9 mb - 0.00 in0.0 mm 0.06 in1.5 mm
08:32 PM 52.0°F11.1°C 47.8°F8.8°C 86% 0.9 mph SSE1.4 kmh SSE 4.9 mph7.9 kmh 29.97 in1014.9 mb - 0.00 in0.0 mm 0.06 in1.5 mm
08:17 PM 52.3°F11.3°C 48.2°F9.0°C 86% Calm Calm -- 29.98 in1015.2 mb - 0.00 in0.0 mm 0.06 in1.5 mm
08:02 PM 52.2°F11.2°C 48.0°F8.9°C 86% Calm Calm -- 29.99 in1015.6 mb - 0.00 in0.0 mm 0.06 in1.5 mm
07:47 PM 52.3°F11.3°C 48.2°F9.0°C 86% Calm Calm -- 30.00 in1015.9 mb - 0.00 in0.0 mm 0.06 in1.5 mm
07:32 PM 52.3°F11.3°C 48.2°F9.0°C 86% 2.0 mph SSE3.2 kmh SSE -- 30.00 in1015.9 mb - 0.00 in0.0 mm 0.05 in1.3 mm
07:17 PM 52.3°F11.3°C 48.0°F8.9°C 85% Calm Calm 2.0 mph3.2 kmh 30.02 in1016.6 mb - 0.00 in0.0 mm 0.05 in1.3 mm
07:02 PM 52.3°F11.3°C 48.0°F8.9°C 85% 0.9 mph SSE1.4 kmh SSE -- 30.02 in1016.6 mb - 0.00 in0.0 mm 0.03 in0.8 mm
06:47 PM 52.5°F11.4°C 48.2°F9.0°C 85% Calm Calm -- 30.02 in1016.6 mb - 0.00 in0.0 mm 0.03 in0.8 mm
06:32 PM 52.9°F11.6°C 48.2°F9.0°C 84% 0.9 mph SSE1.4 kmh SSE 4.0 mph6.4 kmh 30.03 in1016.9 mb - 0.00 in0.0 mm 0.01 in0.3 mm
06:17 PM 53.1°F11.7°C 48.4°F9.1°C 84% Calm Calm -- 30.04 in1017.3 mb - 0.00 in0.0 mm 0.01 in0.3 mm
06:02 PM 53.4°F11.9°C 48.4°F9.1°C 83% 2.0 mph SSE3.2 kmh SSE 4.0 mph6.4 kmh 30.04 in1017.3 mb - 0.00 in0.0 mm 0.01 in0.3 mm
05:47 PM 54.0°F12.2°C 48.6°F9.2°C 82% 0.9 mph SSE1.4 kmh SSE 4.0 mph6.4 kmh 30.04 in1017.3 mb - 0.00 in0.0 mm 0.01 in0.3 mm
05:32 PM 54.3°F12.4°C 48.2°F9.0°C 80% Calm Calm -- 30.05 in1017.6 mb - 0.00 in0.0 mm 0.01 in0.3 mm
05:17 PM 55.0°F12.8°C 48.9°F9.4°C 80% Calm Calm -- 30.05 in1017.6 mb - 0.00 in0.0 mm 0.01 in0.3 mm
05:02 PM 55.9°F13.3°C 48.9°F9.4°C 77% Calm Calm -- 30.06 in1017.9 mb - 0.00 in0.0 mm 0.01 in0.3 mm
04:47 PM 56.3°F13.5°C 48.6°F9.2°C 75% Calm Calm -- 30.06 in1017.9 mb - 0.00 in0.0 mm 0.01 in0.3 mm
04:32 PM 56.5°F13.6°C 47.5°F8.6°C 72% Calm Calm -- 30.06 in1017.9 mb - 0.00 in0.0 mm 0.01 in0.3 mm
04:17 PM 56.7°F13.7°C 47.7°F8.7°C 72% Calm Calm -- 30.07 in1018.3 mb - 0.00 in0.0 mm 0.01 in0.3 mm
04:02 PM 56.7°F13.7°C 47.7°F8.7°C 72% Calm Calm -- 30.07 in1018.3 mb - 0.00 in0.0 mm 0.01 in0.3 mm
03:47 PM 56.7°F13.7°C 48.0°F8.9°C 73% 2.0 mph SSE3.2 kmh SSE -- 30.07 in1018.3 mb - 0.00 in0.0 mm 0.01 in0.3 mm
03:32 PM 56.5°F13.6°C 48.7°F9.3°C 75% 2.0 mph SSE3.2 kmh SSE 2.0 mph3.2 kmh 30.07 in1018.3 mb - 0.00 in0.0 mm 0.01 in0.3 mm
03:17 PM 56.7°F13.7°C 49.1°F9.5°C 76% 2.0 mph SSE3.2 kmh SSE -- 30.08 in1018.6 mb - 0.00 in0.0 mm 0.01 in0.3 mm
03:02 PM 56.8°F13.8°C 49.6°F9.8°C 77% Calm Calm -- 30.09 in1019.0 mb - 0.00 in0.0 mm 0.01 in0.3 mm
02:47 PM 56.7°F13.7°C 49.8°F9.9°C 78% Calm Calm -- 30.09 in1019.0 mb - 0.00 in0.0 mm 0.01 in0.3 mm
02:32 PM 56.1°F13.4°C 49.6°F9.8°C 79% Calm Calm -- 30.09 in1019.0 mb - 0.00 in0.0 mm 0.01 in0.3 mm
02:17 PM 55.9°F13.3°C 49.5°F9.7°C 79% 2.0 mph SSE3.2 kmh SSE 2.0 mph3.2 kmh 30.10 in1019.3 mb - 0.00 in0.0 mm 0.01 in0.3 mm
02:02 PM 55.8°F13.2°C 49.6°F9.8°C 80% 2.0 mph SSE3.2 kmh SSE 2.0 mph3.2 kmh 30.10 in1019.3 mb - 0.00 in0.0 mm 0.01 in0.3 mm
01:47 PM 55.8°F13.2°C 49.6°F9.8°C 80% 2.0 mph SSE3.2 kmh SSE 0.9 mph1.4 kmh 30.12 in1020.0 mb - 0.00 in0.0 mm 0.01 in0.3 mm
01:32 PM 55.6°F13.1°C 49.8°F9.9°C 81% 2.0 mph S3.2 kmh S 4.0 mph6.4 kmh 30.12 in1020.0 mb - 0.00 in0.0 mm 0.01 in0.3 mm
01:17 PM 55.2°F12.9°C 49.8°F9.9°C 82% 4.0 mph SE6.4 kmh SE 4.0 mph6.4 kmh 30.13 in1020.3 mb - 0.00 in0.0 mm 0.01 in0.3 mm
01:02 PM 55.2°F12.9°C 50.5°F10.3°C 84% 4.0 mph SSE6.4 kmh SSE 2.0 mph3.2 kmh 30.14 in1020.7 mb - 0.00 in0.0 mm 0.01 in0.3 mm
12:47 PM 54.9°F12.7°C 50.4°F10.2°C 85% 4.9 mph SSE7.9 kmh SSE 2.0 mph3.2 kmh 30.15 in1021.0 mb - 0.00 in0.0 mm 0.01 in0.3 mm
12:32 PM 54.9°F12.7°C 51.1°F10.6°C 87% 0.9 mph S1.4 kmh S -- 30.16 in1021.3 mb - 0.00 in0.0 mm 0.01 in0.3 mm
12:17 PM 54.9°F12.7°C 51.4°F10.8°C 88% 0.9 mph SSW1.4 kmh SSW -- 30.16 in1021.3 mb - 0.00 in0.0 mm 0.01 in0.3 mm
12:02 PM 54.3°F12.4°C 51.1°F10.6°C 89% Calm Calm -- 30.17 in1021.7 mb - 0.00 in0.0 mm 0.01 in0.3 mm
11:47 AM 54.9°F12.7°C 52.3°F11.3°C 91% Calm Calm 2.9 mph4.7 kmh 30.18 in1022.0 mb - 0.00 in0.0 mm 0.01 in0.3 mm
11:32 AM 54.5°F12.5°C 52.5°F11.4°C 93% Calm Calm 2.0 mph3.2 kmh 30.18 in1022.0 mb - 0.00 in0.0 mm 0.01 in0.3 mm
11:17 AM 54.3°F12.4°C 52.3°F11.3°C 93% Calm Calm -- 30.19 in1022.4 mb - 0.00 in0.0 mm 0.01 in0.3 mm
11:02 AM 53.1°F11.7°C 51.1°F10.6°C 93% Calm Calm -- 30.19 in1022.4 mb - 0.00 in0.0 mm 0.01 in0.3 mm
10:47 AM 52.9°F11.6°C 50.9°F10.5°C 93% Calm Calm -- 30.19 in1022.4 mb - 0.00 in0.0 mm 0.01 in0.3 mm
10:32 AM 52.7°F11.5°C 50.7°F10.4°C 93% Calm Calm -- 30.19 in1022.4 mb - 0.00 in0.0 mm 0.01 in0.3 mm
10:17 AM 53.1°F11.7°C 51.1°F10.6°C 93% Calm Calm -- 30.20 in1022.7 mb - 0.00 in0.0 mm 0.01 in0.3 mm
10:02 AM 52.5°F11.4°C 50.5°F10.3°C 93% Calm Calm -- 30.19 in1022.4 mb - 0.00 in0.0 mm 0.01 in0.3 mm
09:47 AM 52.3°F11.3°C 50.4°F10.2°C 93% Calm Calm -- 30.19 in1022.4 mb - 0.00 in0.0 mm 0.01 in0.3 mm
09:32 AM 52.3°F11.3°C 50.4°F10.2°C 93% Calm Calm -- 30.20 in1022.7 mb - 0.00 in0.0 mm 0.01 in0.3 mm
09:17 AM 52.5°F11.4°C 50.5°F10.3°C 93% 0.9 mph SW1.4 kmh SW -- 30.21 in1023.0 mb - 0.00 in0.0 mm 0.01 in0.3 mm
09:02 AM 52.7°F11.5°C 50.7°F10.4°C 93% Calm Calm 2.9 mph4.7 kmh 30.20 in1022.7 mb - 0.00 in0.0 mm 0.01 in0.3 mm
08:47 AM 52.5°F11.4°C 50.5°F10.3°C 93% Calm Calm -- 30.20 in1022.7 mb - 0.00 in0.0 mm 0.01 in0.3 mm
08:32 AM 52.3°F11.3°C 50.4°F10.2°C 93% Calm Calm -- 30.20 in1022.7 mb - 0.00 in0.0 mm 0.01 in0.3 mm
08:17 AM 51.8°F11.0°C 49.8°F9.9°C 93% Calm Calm -- 30.20 in1022.7 mb - 0.00 in0.0 mm 0.01 in0.3 mm
08:02 AM 51.6°F10.9°C 49.6°F9.8°C 93% Calm Calm -- 30.19 in1022.4 mb - 0.00 in0.0 mm 0.01 in0.3 mm
07:47 AM 52.0°F11.1°C 50.0°F10.0°C 93% Calm Calm -- 30.19 in1022.4 mb - 0.00 in0.0 mm 0.01 in0.3 mm
07:32 AM 52.0°F11.1°C 50.0°F10.0°C 93% Calm Calm -- 30.19 in1022.4 mb - 0.00 in0.0 mm 0.01 in0.3 mm
07:17 AM 51.8°F11.0°C 49.8°F9.9°C 93% Calm Calm -- 30.19 in1022.4 mb - 0.00 in0.0 mm 0.01 in0.3 mm
07:02 AM 51.3°F10.7°C 49.3°F9.6°C 93% Calm Calm -- 30.19 in1022.4 mb - 0.04 in1.0 mm 0.01 in0.3 mm
06:47 AM 50.2°F10.1°C 48.0°F8.9°C 92% Calm Calm -- 30.20 in1022.7 mb - 0.00 in0.0 mm 0.01 in0.3 mm
06:32 AM 50.0°F10.0°C 47.8°F8.8°C 92% Calm Calm -- 30.19 in1022.4 mb - 0.00 in0.0 mm 0.01 in0.3 mm
06:17 AM 49.6°F9.8°C 47.5°F8.6°C 92% 0.9 mph SE1.4 kmh SE -- 30.18 in1022.0 mb - 0.00 in0.0 mm 0.01 in0.3 mm
06:02 AM 49.6°F9.8°C 47.1°F8.4°C 91% 2.0 mph SE3.2 kmh SE -- 30.18 in1022.0 mb - 0.00 in0.0 mm 0.01 in0.3 mm
05:47 AM 49.6°F9.8°C 46.8°F8.2°C 90% 2.9 mph SE4.7 kmh SE -- 30.19 in1022.4 mb - 0.00 in0.0 mm 0.01 in0.3 mm
05:32 AM 49.8°F9.9°C 46.9°F8.3°C 90% 0.9 mph SE1.4 kmh SE 0.9 mph1.4 kmh 30.19 in1022.4 mb - 0.05 in1.3 mm 0.01 in0.3 mm
05:17 AM 49.6°F9.8°C 46.6°F8.1°C 89% 2.9 mph SE4.7 kmh SE 6.0 mph9.7 kmh 30.19 in1022.4 mb - 0.09 in2.3 mm 0.01 in0.3 mm
05:02 AM 50.2°F10.1°C 46.4°F8.0°C 87% Calm Calm -- 30.19 in1022.4 mb - 0.05 in1.3 mm 0.01 in0.3 mm
04:47 AM 50.4°F10.2°C 46.0°F7.8°C 85% Calm Calm -- 30.19 in1022.4 mb - 0.00 in0.0 mm 0.01 in0.3 mm
04:32 AM 50.4°F10.2°C 46.0°F7.8°C 85% 2.0 mph SE3.2 kmh SE -- 30.19 in1022.4 mb - 0.00 in0.0 mm 0.01 in0.3 mm
04:17 AM 50.2°F10.1°C 45.9°F7.7°C 85% 0.9 mph SE1.4 kmh SE -- 30.19 in1022.4 mb - 0.00 in0.0 mm 0.01 in0.3 mm
04:02 AM 50.2°F10.1°C 46.2°F7.9°C 86% 0.9 mph SE1.4 kmh SE -- 30.20 in1022.7 mb - 0.00 in0.0 mm 0.01 in0.3 mm
03:47 AM 50.2°F10.1°C 46.2°F7.9°C 86% Calm Calm -- 30.20 in1022.7 mb - 0.00 in0.0 mm 0.01 in0.3 mm
03:32 AM 50.4°F10.2°C 46.4°F8.0°C 86% Calm Calm -- 30.20 in1022.7 mb - 0.00 in0.0 mm 0.01 in0.3 mm
03:17 AM 50.0°F10.0°C 46.0°F7.8°C 86% Calm Calm -- 30.20 in1022.7 mb - 0.00 in0.0 mm 0.01 in0.3 mm
03:02 AM 49.6°F9.8°C 45.9°F7.7°C 87% Calm Calm -- 30.19 in1022.4 mb - 0.00 in0.0 mm 0.01 in0.3 mm
02:47 AM 49.1°F9.5°C 45.3°F7.4°C 87% Calm Calm -- 30.19 in1022.4 mb - 0.00 in0.0 mm 0.01 in0.3 mm
02:32 AM 48.7°F9.3°C 44.8°F7.1°C 86% Calm Calm -- 30.20 in1022.7 mb - 0.00 in0.0 mm 0.01 in0.3 mm
02:17 AM 48.7°F9.3°C 44.8°F7.1°C 86% Calm Calm -- 30.20 in1022.7 mb - 0.00 in0.0 mm 0.01 in0.3 mm
02:02 AM 49.3°F9.6°C 45.3°F7.4°C 86% Calm Calm -- 30.20 in1022.7 mb - 0.00 in0.0 mm 0.00 in0.0 mm
01:47 AM 48.7°F9.3°C 45.0°F7.2°C 87% Calm Calm -- 30.20 in1022.7 mb - 0.00 in0.0 mm 0.00 in0.0 mm
01:32 AM 48.4°F9.1°C 44.8°F7.1°C 87% 0.9 mph SE1.4 kmh SE -- 30.20 in1022.7 mb - 0.00 in0.0 mm 0.00 in0.0 mm
01:17 AM 48.0°F8.9°C 44.4°F6.9°C 87% Calm Calm -- 30.21 in1023.0 mb - 0.00 in0.0 mm 0.00 in0.0 mm
01:02 AM 48.0°F8.9°C 44.6°F7.0°C 88% Calm Calm -- 30.21 in1023.0 mb - 0.00 in0.0 mm 0.00 in0.0 mm
12:47 AM 47.8°F8.8°C 44.8°F7.1°C 89% Calm Calm -- 30.21 in1023.0 mb - 0.00 in0.0 mm 0.00 in0.0 mm
12:32 AM 47.1°F8.4°C 44.1°F6.7°C 89% Calm Calm -- 30.21 in1023.0 mb - 0.00 in0.0 mm 0.00 in0.0 mm
12:17 AM 46.2°F7.9°C 42.8°F6.0°C 88% Calm Calm -- 30.21 in1023.0 mb - 0.00 in0.0 mm 0.00 in0.0 mm
12:02 AM 46.6°F8.1°C 43.5°F6.4°C 89% Calm Calm -- 30.21 in1023.0 mb - 0.00 in0.0 mm 0.01 in0.3 mm